createdAt,value
2019-05-16T00:00:49.587Z,91.40
2019-05-16T00:03:18.813Z,91.62
2019-05-16T00:05:54.050Z,90.90
2019-05-16T00:08:18.548Z,91.98
2019-05-16T00:10:48.704Z,92.89
2019-05-16T00:13:18.695Z,93.19
2019-05-16T00:15:48.173Z,93.19
2019-05-16T00:18:17.970Z,93.77
2019-05-16T00:20:49.108Z,93.68
2019-05-16T00:23:18.322Z,93.78
2019-05-16T00:25:47.825Z,93.28
2019-05-16T00:28:18.009Z,93.37
2019-05-16T00:30:48.720Z,93.91
2019-05-16T00:33:18.485Z,94.75
2019-05-16T00:35:48.216Z,93.99
2019-05-16T00:38:18.683Z,93.37
2019-05-16T00:40:48.692Z,94.03
2019-05-16T00:43:18.488Z,94.13
2019-05-16T00:45:48.658Z,94.85
2019-05-16T00:48:18.533Z,94.87
2019-05-16T00:50:48.139Z,95.01
2019-05-16T00:53:18.184Z,95.60
2019-05-16T00:55:48.023Z,95.85
2019-05-16T00:58:19.170Z,94.17
2019-05-16T01:00:50.411Z,94.74
2019-05-16T01:03:20.566Z,94.34
2019-05-16T01:05:50.116Z,94.54
2019-05-16T01:08:19.261Z,94.20
2019-05-16T01:10:51.490Z,92.79
2019-05-16T01:13:19.734Z,93.37
2019-05-16T01:15:48.912Z,93.70
2019-05-16T01:18:18.754Z,94.19
2019-05-16T01:20:48.496Z,94.82
2019-05-16T01:23:18.250Z,94.62
2019-05-16T01:25:48.290Z,94.12
2019-05-16T01:28:18.387Z,94.91
2019-05-16T01:30:48.818Z,95.40
2019-05-16T01:33:19.141Z,96.26
2019-05-16T01:35:49.179Z,97.52
2019-05-16T01:38:18.316Z,98.38
2019-05-16T01:40:49.102Z,97.84
2019-05-16T01:43:18.430Z,98.84
2019-05-16T01:45:48.757Z,99.06
2019-05-16T01:48:19.215Z,99.35
2019-05-16T01:50:48.619Z,99.58
2019-05-16T01:53:18.053Z,99.10
2019-05-16T01:55:48.817Z,98.94
2019-05-16T01:58:19.784Z,98.85
2019-05-16T02:01:03.207Z,99.13
2019-05-16T02:03:20.869Z,99.41
2019-05-16T02:05:49.922Z,99.81
2019-05-16T02:08:18.938Z,99.41
2019-05-16T02:10:48.129Z,98.24
2019-05-16T02:13:18.137Z,98.08
2019-05-16T02:15:48.863Z,98.23
2019-05-16T02:18:19.246Z,98.00
2019-05-16T02:20:48.364Z,97.80
2019-05-16T02:23:18.872Z,97.91
2019-05-16T02:25:49.241Z,97.28
2019-05-16T02:28:21.064Z,97.19
2019-05-16T02:30:51.405Z,97.96
2019-05-16T02:33:21.429Z,98.34
2019-05-16T02:35:55.359Z,99.03
2019-05-16T02:38:21.818Z,98.45
2019-05-16T02:40:54.845Z,98.18
2019-05-16T02:43:26.291Z,97.91
2019-05-16T02:45:52.372Z,97.88
2019-05-16T02:48:21.831Z,97.63
2019-05-16T02:50:51.715Z,98.61
2019-05-16T02:53:22.594Z,99.53
2019-05-16T02:55:52.227Z,99.60
2019-05-16T02:58:23.452Z,98.74
2019-05-16T03:00:52.381Z,99.14
2019-05-16T03:03:21.806Z,99.22
2019-05-16T03:05:52.037Z,98.97
2019-05-16T03:08:22.957Z,98.90
2019-05-16T03:10:53.115Z,97.65
2019-05-16T03:13:23.148Z,98.16
2019-05-16T03:15:52.211Z,98.23
2019-05-16T03:18:24.066Z,98.46
2019-05-16T03:20:55.095Z,99.14
2019-05-16T03:23:24.313Z,99.86
2019-05-16T03:25:53.324Z,99.97
2019-05-16T03:28:22.573Z,100.00
2019-05-16T03:30:54.759Z,100.00
2019-05-16T03:33:30.845Z,100.00
2019-05-16T03:35:55.457Z,100.00
2019-05-16T03:38:24.460Z,100.00
2019-05-16T03:40:53.566Z,100.00
2019-05-16T03:43:22.617Z,100.00
2019-05-16T03:45:52.335Z,100.00
2019-05-16T03:48:21.754Z,100.00
2019-05-16T03:50:51.169Z,100.00
2019-05-16T03:53:21.188Z,100.00
2019-05-16T03:55:51.803Z,100.00
2019-05-16T03:58:22.566Z,100.00
2019-05-16T04:00:55.047Z,100.00
2019-05-16T04:03:28.555Z,100.00
2019-05-16T04:05:55.619Z,100.00
2019-05-16T04:08:25.685Z,100.00
2019-05-16T04:10:55.302Z,100.00
2019-05-16T04:13:24.709Z,100.00
2019-05-16T04:15:53.795Z,100.00
2019-05-16T04:18:23.127Z,100.00
2019-05-16T04:20:52.943Z,100.00
2019-05-16T04:23:22.166Z,100.00
2019-05-16T04:25:53.077Z,100.00
2019-05-16T04:28:23.479Z,100.00
2019-05-16T04:30:52.992Z,100.00
2019-05-16T04:33:22.695Z,100.00
2019-05-16T04:35:53.062Z,99.72
2019-05-16T04:38:34.895Z,99.72
2019-05-16T04:40:53.575Z,99.44
2019-05-16T04:43:22.909Z,98.58
2019-05-16T04:45:52.994Z,98.58
2019-05-16T04:48:23.118Z,99.78
2019-05-16T04:50:52.764Z,99.67
2019-05-16T04:53:22.365Z,98.40
2019-05-16T04:55:52.341Z,98.40
2019-05-16T04:58:23.221Z,97.41
2019-05-16T05:00:53.336Z,97.68
2019-05-16T05:03:23.026Z,99.55
2019-05-16T05:05:52.222Z,99.55
2019-05-16T05:08:22.485Z,99.96
2019-05-16T05:10:52.268Z,100.00
2019-05-16T05:13:22.436Z,100.00
2019-05-16T05:15:52.362Z,99.85
2019-05-16T05:18:25.718Z,98.90
2019-05-16T05:20:56.003Z,98.82
2019-05-16T05:23:24.978Z,97.91
2019-05-16T05:25:53.999Z,96.62
2019-05-16T05:28:24.687Z,96.88
2019-05-16T05:30:53.717Z,97.80
2019-05-16T05:33:22.737Z,96.68
2019-05-16T05:35:51.786Z,96.68
2019-05-16T05:38:21.687Z,96.20
2019-05-16T05:40:51.663Z,96.41
2019-05-16T05:43:21.775Z,96.25
2019-05-16T05:45:51.774Z,96.69
2019-05-16T05:48:21.948Z,97.46
2019-05-16T05:50:51.659Z,97.87
2019-05-16T05:53:21.186Z,99.15
2019-05-16T05:55:51.790Z,97.72
2019-05-16T05:58:21.827Z,99.19
2019-05-16T06:00:52.112Z,99.13
2019-05-16T06:03:22.721Z,97.08
2019-05-16T06:05:52.430Z,97.92
2019-05-16T06:08:21.573Z,96.73
2019-05-16T06:10:50.784Z,97.09
2019-05-16T06:13:21.096Z,96.52
2019-05-16T06:15:51.279Z,96.55
2019-05-16T06:18:20.740Z,96.39
2019-05-16T06:20:51.279Z,92.74
2019-05-16T06:23:21.135Z,93.23
2019-05-16T06:25:51.043Z,94.90
2019-05-16T06:28:21.216Z,94.85
2019-05-16T06:30:51.531Z,92.90
2019-05-16T06:33:21.378Z,93.07
2019-05-16T06:35:51.436Z,93.31
2019-05-16T06:38:21.505Z,94.25
2019-05-16T06:40:52.717Z,90.23
2019-05-16T06:43:21.552Z,90.43
2019-05-16T06:45:51.407Z,91.07
2019-05-16T06:48:21.518Z,90.78
2019-05-16T06:50:52.098Z,88.91
2019-05-16T06:53:21.506Z,90.33
2019-05-16T06:55:50.602Z,89.45
2019-05-16T06:58:22.163Z,85.72
2019-05-16T07:00:52.350Z,86.51
2019-05-16T07:03:21.542Z,91.34
2019-05-16T07:05:51.222Z,89.89
2019-05-16T07:08:21.222Z,90.59
2019-05-16T07:10:51.276Z,92.77
2019-05-16T07:13:20.396Z,91.72
2019-05-16T07:15:50.384Z,92.13
2019-05-16T07:18:20.866Z,95.36
2019-05-16T07:20:51.369Z,90.79
2019-05-16T07:23:21.368Z,92.42
2019-05-16T07:25:51.148Z,88.54
2019-05-16T07:28:21.107Z,85.62
2019-05-16T07:30:50.924Z,84.85
2019-05-16T07:33:21.221Z,84.38
2019-05-16T07:35:51.587Z,83.05
2019-05-16T07:38:20.984Z,82.07
2019-05-16T07:40:51.268Z,82.07
2019-05-16T07:43:21.083Z,83.47
2019-05-16T07:45:51.379Z,88.35
2019-05-16T07:48:21.968Z,88.50
2019-05-16T07:50:52.417Z,87.86
2019-05-16T07:53:21.763Z,88.04
2019-05-16T07:55:51.244Z,83.87
2019-05-16T07:58:22.122Z,81.44
2019-05-16T08:01:01.907Z,81.86
2019-05-16T08:03:22.162Z,82.62
2019-05-16T08:05:51.784Z,83.25
2019-05-16T08:08:24.379Z,82.97
2019-05-16T08:10:52.456Z,82.82
2019-05-16T08:13:21.748Z,80.47
2019-05-16T08:15:51.213Z,78.68
2019-05-16T08:18:21.403Z,76.05
2019-05-16T08:20:52.602Z,71.72
2019-05-16T08:23:22.922Z,72.11
2019-05-16T08:25:52.331Z,68.96
2019-05-16T08:28:22.048Z,67.69
2019-05-16T08:30:52.853Z,67.50
2019-05-16T08:33:22.341Z,67.60
2019-05-16T08:35:51.933Z,67.67
2019-05-16T08:38:21.860Z,68.55
2019-05-16T08:41:08.100Z,67.71
2019-05-16T08:43:22.331Z,66.40
2019-05-16T08:45:51.852Z,66.58
2019-05-16T08:48:23.453Z,66.88
2019-05-16T08:50:54.619Z,64.27
2019-05-16T08:53:23.696Z,63.44
2019-05-16T08:55:52.677Z,65.84
2019-05-16T08:58:22.901Z,64.64
2019-05-16T09:00:56.273Z,64.05
2019-05-16T09:03:22.978Z,63.51
2019-05-16T09:08:22.814Z,65.60
2019-05-16T09:10:30.922Z,64.09
2019-05-16T09:11:01.722Z,66.63
2019-05-16T09:13:22.874Z,65.01
2019-05-16T09:15:51.901Z,64.51
2019-05-16T09:18:20.937Z,64.37
2019-05-16T09:20:50.672Z,63.04
2019-05-16T09:23:19.933Z,65.14
2019-05-16T09:25:49.351Z,64.71
2019-05-16T09:28:18.676Z,64.90
2019-05-16T09:30:47.719Z,62.58
2019-05-16T09:33:17.770Z,64.62
2019-05-16T09:35:48.015Z,62.33
2019-05-16T09:38:23.238Z,62.32
2019-05-16T09:40:48.585Z,61.42
2019-05-16T09:43:18.365Z,60.91
2019-05-16T09:45:47.644Z,60.28
2019-05-16T09:48:18.818Z,62.58
2019-05-16T09:50:48.627Z,60.83
2019-05-16T09:53:17.748Z,61.34
2019-05-16T09:55:47.382Z,60.03
2019-05-16T09:58:18.367Z,58.14
2019-05-16T10:00:48.052Z,58.75
2019-05-16T10:03:22.341Z,58.69
2019-05-16T10:05:48.674Z,58.15
2019-05-16T10:08:17.970Z,57.81
2019-05-16T10:10:47.162Z,59.37
2019-05-16T10:13:18.360Z,62.90
2019-05-16T10:15:47.534Z,61.96
2019-05-16T10:18:17.077Z,57.71
2019-05-16T10:20:46.257Z,59.64
2019-05-16T10:23:17.965Z,59.39
2019-05-16T10:25:47.992Z,58.38
2019-05-16T10:28:19.787Z,59.25
2019-05-16T10:30:50.060Z,61.34
2019-05-16T10:33:19.412Z,59.52
2019-05-16T10:35:48.831Z,60.22
2019-05-16T10:38:17.955Z,58.24
2019-05-16T10:40:47.695Z,55.30
2019-05-16T10:43:17.393Z,54.60
2019-05-16T10:45:46.729Z,57.51
2019-05-16T10:48:17.670Z,54.45
2019-05-16T10:50:47.743Z,50.88
2019-05-16T10:53:43.072Z,56.00
2019-05-16T10:55:48.063Z,55.52
2019-05-16T10:58:35.070Z,52.57
2019-05-16T11:01:13.934Z,52.65
2019-05-16T11:03:18.693Z,53.28
2019-05-16T11:06:01.677Z,51.95
2019-05-16T11:08:19.095Z,52.29
2019-05-16T11:10:48.233Z,50.10
2019-05-16T11:13:20.249Z,49.04
2019-05-16T11:15:48.485Z,50.56
2019-05-16T11:18:17.909Z,54.66
2019-05-16T11:20:49.118Z,52.17
2019-05-16T11:23:23.371Z,54.38
2019-05-16T11:25:48.607Z,55.34
2019-05-16T11:28:18.048Z,54.31
2019-05-16T11:30:49.659Z,53.15
2019-05-16T11:33:18.566Z,53.48
2019-05-16T11:35:47.887Z,52.87
2019-05-16T11:38:17.887Z,54.06
2019-05-16T11:40:47.615Z,55.71
2019-05-16T11:43:21.431Z,53.14
2019-05-16T11:45:48.285Z,54.72
2019-05-16T11:48:17.376Z,55.39
2019-05-16T11:50:48.052Z,52.63
2019-05-16T11:53:17.729Z,51.66
2019-05-16T11:55:54.549Z,51.16
2019-05-16T11:58:18.340Z,50.79
2019-05-16T12:00:48.314Z,50.61
2019-05-16T12:03:17.671Z,51.67
2019-05-16T12:05:47.984Z,51.53
2019-05-16T12:08:17.819Z,52.57
2019-05-16T12:10:47.289Z,55.10
2019-05-16T12:13:27.660Z,52.15
2019-05-16T12:15:47.636Z,51.56
2019-05-16T12:18:17.279Z,51.30
2019-05-16T12:20:46.734Z,50.24
2019-05-16T12:23:17.130Z,51.93
2019-05-16T12:25:47.619Z,51.47
2019-05-16T12:28:17.311Z,54.11
2019-05-16T12:30:47.182Z,50.23
2019-05-16T12:33:18.848Z,53.09
2019-05-16T12:35:47.743Z,53.50
2019-05-16T12:38:17.424Z,54.75
2019-05-16T12:40:47.887Z,54.92
2019-05-16T12:43:18.132Z,51.15
2019-05-16T12:45:47.592Z,49.73
2019-05-16T12:48:20.220Z,50.11
2019-05-16T12:50:48.367Z,53.76
2019-05-16T12:53:17.857Z,52.74
2019-05-16T12:55:47.539Z,52.24
2019-05-16T12:58:25.057Z,50.07
2019-05-16T13:00:54.161Z,50.72
2019-05-16T13:03:19.578Z,51.17
2019-05-16T13:05:48.608Z,52.28
2019-05-16T13:08:17.965Z,54.48
2019-05-16T13:10:47.354Z,51.96
2019-05-16T13:13:17.770Z,53.39
2019-05-16T13:15:47.491Z,56.54
2019-05-16T13:18:17.190Z,53.33
2019-05-16T13:20:46.965Z,49.96
2019-05-16T13:23:18.349Z,51.17
2019-05-16T13:25:48.045Z,54.81
2019-05-16T13:28:17.577Z,58.59
2019-05-16T13:30:47.215Z,55.73
2019-05-16T13:33:17.793Z,56.60
2019-05-16T13:35:47.415Z,52.83
2019-05-16T13:38:17.530Z,52.83
2019-05-16T13:40:47.071Z,54.55
2019-05-16T13:43:17.513Z,54.57
2019-05-16T13:45:47.418Z,55.74
2019-05-16T13:48:17.308Z,56.59
2019-05-16T13:50:47.332Z,58.78
2019-05-16T13:53:16.715Z,56.84
2019-05-16T13:55:45.788Z,56.99
2019-05-16T13:58:17.650Z,56.75
2019-05-16T14:00:48.092Z,56.22
2019-05-16T14:03:17.882Z,56.61
2019-05-16T14:05:47.776Z,57.15
2019-05-16T14:08:17.336Z,56.18
2019-05-16T14:10:48.472Z,58.25
2019-05-16T14:13:17.135Z,58.14
2019-05-16T14:15:47.254Z,59.28
2019-05-16T14:18:17.628Z,58.29
2019-05-16T14:20:47.012Z,58.76
2019-05-16T14:23:17.582Z,60.36
2019-05-16T14:25:48.057Z,60.25
2019-05-16T14:28:17.852Z,61.82
2019-05-16T14:30:47.089Z,61.31
2019-05-16T14:33:17.178Z,62.23
2019-05-16T14:35:47.393Z,62.11
2019-05-16T14:38:17.591Z,62.90
2019-05-16T14:40:50.236Z,62.90
2019-05-16T14:43:17.826Z,63.35
2019-05-16T14:45:46.966Z,62.83
2019-05-16T14:48:18.425Z,63.28
2019-05-16T14:50:47.252Z,65.07
2019-05-16T14:53:18.002Z,66.80
2019-05-16T14:55:47.745Z,67.80
2019-05-16T14:58:16.982Z,68.64
2019-05-16T15:00:49.164Z,69.57
2019-05-16T15:03:18.054Z,70.23
2019-05-16T15:05:48.116Z,70.20
2019-05-16T15:08:18.157Z,71.27
2019-05-16T15:10:47.630Z,71.16
2019-05-16T15:13:17.524Z,72.17
2019-05-16T15:15:46.989Z,72.09
2019-05-16T15:18:17.670Z,73.18
2019-05-16T15:20:47.152Z,73.10
2019-05-16T15:23:17.508Z,73.34
2019-05-16T15:25:47.042Z,73.68
2019-05-16T15:28:17.219Z,74.93
2019-05-16T15:30:47.030Z,73.70
2019-05-16T15:33:19.655Z,74.47
2019-05-16T15:35:47.356Z,74.75
2019-05-16T15:38:16.771Z,73.64
2019-05-16T15:40:48.213Z,74.79
2019-05-16T15:43:18.224Z,74.41
2019-05-16T15:45:52.182Z,73.63
2019-05-16T15:48:18.305Z,74.94
2019-05-16T15:50:47.473Z,74.68
2019-05-16T15:53:17.634Z,73.88
2019-05-16T15:55:47.541Z,75.93
2019-05-16T15:58:18.011Z,75.92
2019-05-16T16:00:49.687Z,75.88
2019-05-16T16:03:19.369Z,76.69
2019-05-16T16:05:48.381Z,78.15
2019-05-16T16:08:18.366Z,79.49
2019-05-16T16:10:48.678Z,79.78
2019-05-16T16:13:19.723Z,80.16
2019-05-16T16:15:53.939Z,79.17
2019-05-16T16:18:21.855Z,79.69
2019-05-16T16:20:51.291Z,80.39
2019-05-16T16:23:20.363Z,81.39
2019-05-16T16:25:51.097Z,82.10
2019-05-16T16:28:20.289Z,82.69
2019-05-16T16:30:49.407Z,83.26
2019-05-16T16:33:25.338Z,82.55
2019-05-16T16:35:49.194Z,81.63
2019-05-16T16:38:18.297Z,81.36
2019-05-16T16:40:48.129Z,80.67
2019-05-16T16:43:17.299Z,81.30
2019-05-16T16:45:47.959Z,81.84
2019-05-16T16:48:17.690Z,81.87
2019-05-16T16:50:46.832Z,82.30
2019-05-16T16:53:17.644Z,82.53
2019-05-16T16:55:47.567Z,81.47
2019-05-16T16:58:17.690Z,81.39
2019-05-16T17:00:47.929Z,81.34
2019-05-16T17:03:17.483Z,82.61
2019-05-16T17:05:46.656Z,82.36
2019-05-16T17:08:16.856Z,82.83
2019-05-16T17:10:47.636Z,84.45
2019-05-16T17:13:17.110Z,83.97
2019-05-16T17:15:47.315Z,84.71
2019-05-16T17:18:17.497Z,84.21
2019-05-16T17:20:47.736Z,84.96
2019-05-16T17:23:17.462Z,85.21
2019-05-16T17:25:47.314Z,85.26
2019-05-16T17:28:17.389Z,86.38
2019-05-16T17:30:47.295Z,86.96
2019-05-16T17:33:18.239Z,86.67
2019-05-16T17:35:49.031Z,85.92
2019-05-16T17:38:18.840Z,85.99
2019-05-16T17:40:48.366Z,86.06
2019-05-16T17:43:17.890Z,86.37
2019-05-16T17:45:47.243Z,85.81
2019-05-16T17:48:17.543Z,86.59
2019-05-16T17:50:47.769Z,86.58
2019-05-16T17:53:17.543Z,87.68
2019-05-16T17:55:47.394Z,87.38
2019-05-16T17:58:17.037Z,86.01
2019-05-16T18:00:47.153Z,86.82
2019-05-16T18:03:17.538Z,87.01
2019-05-16T18:05:47.689Z,88.04
2019-05-16T18:08:17.007Z,88.26
2019-05-16T18:10:47.119Z,88.78
2019-05-16T18:13:17.257Z,88.62
2019-05-16T18:15:47.289Z,88.35
2019-05-16T18:18:17.736Z,87.40
2019-05-16T18:20:55.843Z,87.11
2019-05-16T18:23:17.981Z,86.92
2019-05-16T18:25:47.227Z,87.56
2019-05-16T18:28:17.495Z,87.29
2019-05-16T18:30:47.366Z,88.26
2019-05-16T18:33:16.806Z,89.12
2019-05-16T18:35:47.045Z,88.19
2019-05-16T18:38:16.189Z,88.29
2019-05-16T18:40:47.353Z,89.14
2019-05-16T18:43:16.607Z,88.34
2019-05-16T18:45:47.163Z,88.68
2019-05-16T18:48:16.460Z,88.80
2019-05-16T18:50:47.753Z,89.51
2019-05-16T18:53:17.819Z,88.64
2019-05-16T18:55:47.449Z,88.24
2019-05-16T18:58:17.933Z,88.16
2019-05-16T19:00:47.776Z,88.47
2019-05-16T19:03:16.874Z,88.43
2019-05-16T19:05:46.342Z,88.75
2019-05-16T19:08:16.320Z,88.21
2019-05-16T19:10:47.355Z,89.24
2019-05-16T19:13:16.960Z,89.30
2019-05-16T19:15:46.576Z,89.56
2019-05-16T19:18:17.152Z,90.84
2019-05-16T19:20:48.851Z,90.45
2019-05-16T19:23:17.620Z,90.54
2019-05-16T19:25:47.405Z,91.02
2019-05-16T19:28:16.946Z,90.59
2019-05-16T19:30:46.618Z,90.26
2019-05-16T19:33:17.421Z,90.56
2019-05-16T19:35:48.911Z,90.33
2019-05-16T19:38:17.454Z,90.63
2019-05-16T19:40:47.010Z,91.38
2019-05-16T19:43:17.462Z,92.15
2019-05-16T19:45:47.031Z,92.51
2019-05-16T19:48:17.411Z,92.10
2019-05-16T19:50:46.892Z,92.39
2019-05-16T19:53:16.558Z,92.81
2019-05-16T19:55:47.042Z,93.48
2019-05-16T19:58:16.544Z,93.94
2019-05-16T20:00:46.535Z,94.99
2019-05-16T20:03:16.660Z,95.74
2019-05-16T20:05:47.601Z,96.38
2019-05-16T20:08:17.602Z,95.98
2019-05-16T20:10:47.720Z,97.26
2019-05-16T20:13:17.304Z,97.39
2019-05-16T20:15:47.160Z,97.75
2019-05-16T20:18:18.518Z,97.80
2019-05-16T20:20:47.322Z,98.04
2019-05-16T20:23:18.471Z,99.11
2019-05-16T20:25:47.146Z,98.78
2019-05-16T20:28:18.471Z,99.82
2019-05-16T20:30:47.546Z,99.54
2019-05-16T20:33:17.976Z,99.36
2019-05-16T20:35:47.573Z,100.00
2019-05-16T20:38:17.318Z,100.00
2019-05-16T20:40:47.046Z,100.00
2019-05-16T20:43:16.816Z,100.00
2019-05-16T20:45:47.593Z,100.00
2019-05-16T20:48:18.590Z,100.00
2019-05-16T20:50:49.264Z,100.00
2019-05-16T20:53:18.555Z,100.00
2019-05-16T20:55:49.539Z,100.00
2019-05-16T20:58:18.534Z,100.00
2019-05-16T21:00:49.754Z,100.00
2019-05-16T21:03:18.309Z,100.00
2019-05-16T21:05:48.229Z,100.00
2019-05-16T21:08:17.400Z,100.00
2019-05-16T21:10:46.546Z,100.00
2019-05-16T21:13:17.298Z,100.00
2019-05-16T21:15:47.683Z,100.00
2019-05-16T21:18:16.936Z,100.00
2019-05-16T21:20:47.019Z,100.00
2019-05-16T21:23:19.390Z,100.00
2019-05-16T21:25:47.410Z,100.00
2019-05-16T21:28:19.482Z,100.00
2019-05-16T21:30:47.495Z,100.00
2019-05-16T21:33:18.718Z,100.00
2019-05-16T21:35:47.496Z,100.00
2019-05-16T21:38:16.769Z,100.00
2019-05-16T21:40:46.283Z,100.00
2019-05-16T21:43:16.803Z,100.00
2019-05-16T21:45:47.419Z,100.00
2019-05-16T21:48:19.298Z,100.00
2019-05-16T21:50:47.431Z,100.00
2019-05-16T21:53:17.741Z,100.00
2019-05-16T21:55:47.321Z,100.00
2019-05-16T21:58:16.578Z,100.00
2019-05-16T22:00:48.684Z,100.00
2019-05-16T22:03:18.086Z,100.00
2019-05-16T22:05:47.632Z,100.00
2019-05-16T22:08:16.970Z,100.00
2019-05-16T22:10:46.892Z,100.00
2019-05-16T22:13:16.160Z,100.00
2019-05-16T22:15:46.370Z,100.00
2019-05-16T22:18:16.576Z,100.00
2019-05-16T22:20:48.898Z,100.00
2019-05-16T22:23:17.461Z,100.00
2019-05-16T22:25:49.165Z,100.00
2019-05-16T22:28:17.592Z,100.00
2019-05-16T22:30:46.813Z,100.00
2019-05-16T22:33:17.885Z,100.00
2019-05-16T22:35:49.488Z,100.00
2019-05-16T22:38:17.624Z,100.00
2019-05-16T22:40:46.687Z,100.00
2019-05-16T22:43:17.371Z,100.00
2019-05-16T22:45:46.851Z,100.00
2019-05-16T22:48:17.244Z,100.00
2019-05-16T22:50:46.823Z,100.00
2019-05-16T22:53:17.180Z,100.00
2019-05-16T22:55:47.817Z,100.00
2019-05-16T22:58:17.250Z,100.00
2019-05-16T23:00:47.211Z,100.00
2019-05-16T23:03:17.372Z,100.00
2019-05-16T23:05:47.656Z,100.00
2019-05-16T23:08:16.713Z,100.00
2019-05-16T23:10:45.796Z,100.00
2019-05-16T23:13:16.839Z,100.00
2019-05-16T23:15:45.672Z,100.00
2019-05-16T23:18:17.102Z,100.00
2019-05-16T23:20:47.355Z,100.00
2019-05-16T23:23:17.375Z,100.00
2019-05-16T23:25:46.901Z,100.00
2019-05-16T23:28:16.759Z,100.00
2019-05-16T23:30:47.100Z,100.00
2019-05-16T23:33:16.438Z,100.00
2019-05-16T23:35:46.883Z,100.00
2019-05-16T23:38:19.864Z,100.00
2019-05-16T23:40:47.084Z,100.00
2019-05-16T23:43:16.160Z,100.00
2019-05-16T23:45:46.942Z,100.00
2019-05-16T23:48:16.639Z,100.00
2019-05-16T23:50:47.487Z,100.00
2019-05-16T23:53:16.553Z,100.00
2019-05-16T23:55:47.152Z,100.00
2019-05-16T23:58:16.719Z,100.00
